sensor_id;sensor_type;location;lat;lon;timestamp;pressure;altitude;pressure_sealevel;temperature;humidity
60845;BME280;47984;51.250;6.712;2022-08-01T00:00:36;101372.38;;;18.61;46.89
60845;BME280;47984;51.250;6.712;2022-08-01T00:03:03;101376.03;;;18.58;46.94
60845;BME280;47984;51.250;6.712;2022-08-01T00:05:30;101374.16;;;18.60;46.93
60845;BME280;47984;51.250;6.712;2022-08-01T00:07:57;101378.50;;;18.61;47.29
60845;BME280;47984;51.250;6.712;2022-08-01T00:10:24;101378.59;;;18.60;47.42
60845;BME280;47984;51.250;6.712;2022-08-01T00:12:51;101375.09;;;18.59;46.83
60845;BME280;47984;51.250;6.712;2022-08-01T00:15:18;101372.53;;;18.58;46.98
60845;BME280;47984;51.250;6.712;2022-08-01T00:17:45;101371.84;;;18.54;47.11
60845;BME280;47984;51.250;6.712;2022-08-01T00:20:15;101376.19;;;18.55;47.30
60845;BME280;47984;51.250;6.712;2022-08-01T00:22:42;101378.06;;;18.53;47.28
60845;BME280;47984;51.250;6.712;2022-08-01T00:25:09;101374.75;;;18.50;47.38
60845;BME280;47984;51.250;6.712;2022-08-01T00:27:36;101380.88;;;18.50;47.58
60845;BME280;47984;51.250;6.712;2022-08-01T00:30:05;101384.25;;;18.52;47.73
60845;BME280;47984;51.250;6.712;2022-08-01T00:32:41;101387.13;;;18.48;47.67
60845;BME280;47984;51.250;6.712;2022-08-01T00:35:09;101380.19;;;18.47;47.81
60845;BME280;47984;51.250;6.712;2022-08-01T00:37:36;101382.88;;;18.45;47.42
60845;BME280;47984;51.250;6.712;2022-08-01T00:40:04;101376.84;;;18.43;47.63
60845;BME280;47984;51.250;6.712;2022-08-01T00:42:31;101376.84;;;18.43;47.43
60845;BME280;47984;51.250;6.712;2022-08-01T00:44:58;101376.97;;;18.40;47.29
60845;BME280;47984;51.250;6.712;2022-08-01T00:47:25;101381.31;;;18.41;47.61
60845;BME280;47984;51.250;6.712;2022-08-01T00:49:52;101380.53;;;18.39;48.01
60845;BME280;47984;51.250;6.712;2022-08-01T00:52:19;101376.38;;;18.35;47.81
60845;BME280;47984;51.250;6.712;2022-08-01T00:54:47;101370.47;;;18.30;47.56
60845;BME280;47984;51.250;6.712;2022-08-01T00:57:14;101368.00;;;18.27;47.91
60845;BME280;47984;51.250;6.712;2022-08-01T00:59:48;101365.53;;;18.24;48.26
60845;BME280;47984;51.250;6.712;2022-08-01T01:02:15;101367.31;;;18.23;47.80
60845;BME280;47984;51.250;6.712;2022-08-01T01:04:42;101365.78;;;18.19;47.67
60845;BME280;47984;51.250;6.712;2022-08-01T01:07:21;101366.53;;;18.21;47.58
60845;BME280;47984;51.250;6.712;2022-08-01T01:09:56;101366.63;;;18.20;47.68
60845;BME280;47984;51.250;6.712;2022-08-01T01:12:34;101368.50;;;18.17;47.52
60845;BME280;47984;51.250;6.712;2022-08-01T01:15:10;101365.94;;;18.16;47.80
60845;BME280;47984;51.250;6.712;2022-08-01T01:17:41;101360.75;;;18.14;48.09
60845;BME280;47984;51.250;6.712;2022-08-01T01:20:20;101369.59;;;18.13;48.11
60845;BME280;47984;51.250;6.712;2022-08-01T01:22:57;101370.50;;;18.12;48.20
60845;BME280;47984;51.250;6.712;2022-08-01T01:25:41;101366.28;;;18.10;48.17
60845;BME280;47984;51.250;6.712;2022-08-01T01:28:15;101364.47;;;18.10;48.34
60845;BME280;47984;51.250;6.712;2022-08-01T01:30:46;101368.22;;;18.06;48.50
60845;BME280;47984;51.250;6.712;2022-08-01T01:33:16;101365.75;;;18.03;48.83
60845;BME280;47984;51.250;6.712;2022-08-01T01:35:49;101371.91;;;18.02;48.20
60845;BME280;47984;51.250;6.712;2022-08-01T01:38:27;101369.38;;;18.01;48.59
60845;BME280;47984;51.250;6.712;2022-08-01T01:40:55;101378.09;;;18.01;48.12
60845;BME280;47984;51.250;6.712;2022-08-01T01:43:24;101374.63;;;18.01;48.39
60845;BME280;47984;51.250;6.712;2022-08-01T01:45:55;101385.16;;;18.01;48.53
60845;BME280;47984;51.250;6.712;2022-08-01T01:48:23;101381.69;;;18.00;48.70
60845;BME280;47984;51.250;6.712;2022-08-01T01:50:52;101385.22;;;17.99;47.97
60845;BME280;47984;51.250;6.712;2022-08-01T01:53:21;101384.47;;;17.97;48.54
60845;BME280;47984;51.250;6.712;2022-08-01T01:55:52;101386.22;;;17.97;48.14
60845;BME280;47984;51.250;6.712;2022-08-01T01:58:20;101388.00;;;17.96;48.42
60845;BME280;47984;51.250;6.712;2022-08-01T02:00:48;101388.94;;;17.95;48.62
60845;BME280;47984;51.250;6.712;2022-08-01T02:03:18;101382.84;;;17.95;48.82
60845;BME280;47984;51.250;6.712;2022-08-01T02:05:46;101379.34;;;17.94;48.74
60845;BME280;47984;51.250;6.712;2022-08-01T02:08:15;101371.47;;;17.94;48.84
60845;BME280;47984;51.250;6.712;2022-08-01T02:10:44;101373.31;;;17.92;48.70
60845;BME280;47984;51.250;6.712;2022-08-01T02:13:33;101371.63;;;17.91;48.61
60845;BME280;47984;51.250;6.712;2022-08-01T02:16:02;101373.38;;;17.90;48.30
60845;BME280;47984;51.250;6.712;2022-08-01T02:18:30;101364.72;;;17.88;48.93
60845;BME280;47984;51.250;6.712;2022-08-01T02:20:58;101373.47;;;17.89;48.53
60845;BME280;47984;51.250;6.712;2022-08-01T02:23:31;101372.69;;;17.87;48.93
60845;BME280;47984;51.250;6.712;2022-08-01T02:26:03;101374.47;;;17.86;48.58
60845;BME280;47984;51.250;6.712;2022-08-01T02:28:43;101375.41;;;17.85;48.75
60845;BME280;47984;51.250;6.712;2022-08-01T02:31:14;101360.63;;;17.83;48.88
60845;BME280;47984;51.250;6.712;2022-08-01T02:33:46;101361.41;;;17.85;48.84
60845;BME280;47984;51.250;6.712;2022-08-01T02:36:16;101366.66;;;17.85;48.99
60845;BME280;47984;51.250;6.712;2022-08-01T02:39:03;101360.69;;;17.81;48.95
60845;BME280;47984;51.250;6.712;2022-08-01T02:41:39;101367.66;;;17.82;49.40
60845;BME280;47984;51.250;6.712;2022-08-01T02:44:09;101362.41;;;17.82;48.72
60845;BME280;47984;51.250;6.712;2022-08-01T02:46:44;101360.69;;;17.81;49.13
60845;BME280;47984;51.250;6.712;2022-08-01T02:49:14;101354.56;;;17.81;48.91
60845;BME280;47984;51.250;6.712;2022-08-01T02:51:43;101366.03;;;17.80;48.84
60845;BME280;47984;51.250;6.712;2022-08-01T02:54:12;101366.03;;;17.80;48.72
60845;BME280;47984;51.250;6.712;2022-08-01T02:56:45;101361.72;;;17.79;49.48
60845;BME280;47984;51.250;6.712;2022-08-01T02:59:16;101361.72;;;17.79;49.40
60845;BME280;47984;51.250;6.712;2022-08-01T03:01:49;101362.72;;;17.76;49.04
60845;BME280;47984;51.250;6.712;2022-08-01T03:04:20;101370.44;;;17.79;48.91
60845;BME280;47984;51.250;6.712;2022-08-01T03:06:49;101365.25;;;17.78;49.34
60845;BME280;47984;51.250;6.712;2022-08-01T03:09:18;101371.50;;;17.75;49.48
60845;BME280;47984;51.250;6.712;2022-08-01T03:11:46;101362.94;;;17.72;49.05
60845;BME280;47984;51.250;6.712;2022-08-01T03:14:14;101375.94;;;17.75;49.49
60845;BME280;47984;51.250;6.712;2022-08-01T03:16:44;101370.66;;;17.75;49.18
60845;BME280;47984;51.250;6.712;2022-08-01T03:19:13;101373.28;;;17.75;49.03
60845;BME280;47984;51.250;6.712;2022-08-01T03:21:42;101371.59;;;17.74;49.46
60845;BME280;47984;51.250;6.712;2022-08-01T03:24:11;101371.59;;;17.74;49.14
60845;BME280;47984;51.250;6.712;2022-08-01T03:26:40;101371.75;;;17.70;49.65
60845;BME280;47984;51.250;6.712;2022-08-01T03:29:17;101376.06;;;17.72;49.79
60845;BME280;47984;51.250;6.712;2022-08-01T03:31:47;101383.06;;;17.73;49.10
60845;BME280;47984;51.250;6.712;2022-08-01T03:34:15;101384.91;;;17.70;49.29
60845;BME280;47984;51.250;6.712;2022-08-01T03:37:03;101384.81;;;17.72;49.74
60845;BME280;47984;51.250;6.712;2022-08-01T03:39:36;101378.78;;;17.70;49.28
60845;BME280;47984;51.250;6.712;2022-08-01T03:42:14;101379.63;;;17.70;49.39
60845;BME280;47984;51.250;6.712;2022-08-01T03:44:51;101377.94;;;17.69;49.47
60845;BME280;47984;51.250;6.712;2022-08-01T03:47:21;101383.22;;;17.69;49.16
60845;BME280;47984;51.250;6.712;2022-08-01T03:49:52;101384.06;;;17.70;49.48
60845;BME280;47984;51.250;6.712;2022-08-01T03:52:20;101376.28;;;17.67;49.86
60845;BME280;47984;51.250;6.712;2022-08-01T03:54:53;101381.44;;;17.68;50.06
60845;BME280;47984;51.250;6.712;2022-08-01T03:57:23;101386.72;;;17.68;49.96
60845;BME280;47984;51.250;6.712;2022-08-01T04:00:05;101382.38;;;17.67;49.96
60845;BME280;47984;51.250;6.712;2022-08-01T04:02:35;101381.44;;;17.68;49.63
60845;BME280;47984;51.250;6.712;2022-08-01T04:05:03;101383.31;;;17.66;49.81
60845;BME280;47984;51.250;6.712;2022-08-01T04:07:32;101385.03;;;17.67;50.05
60845;BME280;47984;51.250;6.712;2022-08-01T04:09:59;101382.38;;;17.67;50.28
60845;BME280;47984;51.250;6.712;2022-08-01T04:12:26;101386.81;;;17.67;49.55
60845;BME280;47984;51.250;6.712;2022-08-01T04:14:53;101381.59;;;17.65;50.20
60845;BME280;47984;51.250;6.712;2022-08-01T04:17:20;101392.97;;;17.66;50.42
60845;BME280;47984;51.250;6.712;2022-08-01T04:19:47;101381.59;;;17.65;50.26
60845;BME280;47984;51.250;6.712;2022-08-01T04:22:14;101386.88;;;17.65;49.89
60845;BME280;47984;51.250;6.712;2022-08-01T04:24:47;101385.97;;;17.66;49.56
60845;BME280;47984;51.250;6.712;2022-08-01T04:27:25;101390.44;;;17.64;50.06
60845;BME280;47984;51.250;6.712;2022-08-01T04:30:26;101396.47;;;17.66;50.05
60845;BME280;47984;51.250;6.712;2022-08-01T04:32:59;101390.34;;;17.66;49.87
60845;BME280;47984;51.250;6.712;2022-08-01T04:35:27;101396.47;;;17.66;50.17
60845;BME280;47984;51.250;6.712;2022-08-01T04:38:21;101399.09;;;17.66;49.89
60845;BME280;47984;51.250;6.712;2022-08-01T04:40:50;101398.22;;;17.66;50.24
60845;BME280;47984;51.250;6.712;2022-08-01T04:43:18;101399.09;;;17.66;49.96
60845;BME280;47984;51.250;6.712;2022-08-01T04:45:47;101394.00;;;17.63;50.19
60845;BME280;47984;51.250;6.712;2022-08-01T04:48:17;101402.63;;;17.65;50.34
60845;BME280;47984;51.250;6.712;2022-08-01T04:50:44;101419.25;;;17.66;50.30
60845;BME280;47984;51.250;6.712;2022-08-01T04:53:13;101415.78;;;17.65;50.54
60845;BME280;47984;51.250;6.712;2022-08-01T04:55:40;101424.53;;;17.66;50.26
60845;BME280;47984;51.250;6.712;2022-08-01T04:58:08;101421.03;;;17.65;50.26
60845;BME280;47984;51.250;6.712;2022-08-01T05:00:35;101426.25;;;17.67;50.05
60845;BME280;47984;51.250;6.712;2022-08-01T05:03:03;101425.41;;;17.66;50.59
60845;BME280;47984;51.250;6.712;2022-08-01T05:05:30;101427.16;;;17.66;50.60
60845;BME280;47984;51.250;6.712;2022-08-01T05:07:58;101422.78;;;17.66;50.16
60845;BME280;47984;51.250;6.712;2022-08-01T05:10:28;101421.03;;;17.65;49.95
60845;BME280;47984;51.250;6.712;2022-08-01T05:12:55;101421.13;;;17.64;50.52
60845;BME280;47984;51.250;6.712;2022-08-01T05:15:22;101428.09;;;17.65;51.00
60845;BME280;47984;51.250;6.712;2022-08-01T05:17:49;101428.19;;;17.63;50.52
60845;BME280;47984;51.250;6.712;2022-08-01T05:20:16;101433.34;;;17.65;50.82
60845;BME280;47984;51.250;6.712;2022-08-01T05:22:43;101431.72;;;17.62;51.13
60845;BME280;47984;51.250;6.712;2022-08-01T05:25:10;101436.91;;;17.64;50.52
60845;BME280;47984;51.250;6.712;2022-08-01T05:27:40;101436.06;;;17.63;50.36
60845;BME280;47984;51.250;6.712;2022-08-01T05:30:08;101436.91;;;17.64;50.43
60845;BME280;47984;51.250;6.712;2022-08-01T05:32:36;101433.50;;;17.62;50.77
60845;BME280;47984;51.250;6.712;2022-08-01T05:35:04;101440.38;;;17.64;50.74
60845;BME280;47984;51.250;6.712;2022-08-01T05:37:31;101443.81;;;17.66;50.61
60845;BME280;47984;51.250;6.712;2022-08-01T05:39:58;101437.91;;;17.61;50.71
60845;BME280;47984;51.250;6.712;2022-08-01T05:42:25;101444.72;;;17.65;51.04
60845;BME280;47984;51.250;6.712;2022-08-01T05:44:52;101452.53;;;17.67;50.83
60845;BME280;47984;51.250;6.712;2022-08-01T05:47:19;101453.38;;;17.67;50.63
60845;BME280;47984;51.250;6.712;2022-08-01T05:49:46;101448.97;;;17.68;50.61
60845;BME280;47984;51.250;6.712;2022-08-01T05:52:13;101455.97;;;17.69;50.63
60845;BME280;47984;51.250;6.712;2022-08-01T05:54:40;101455.09;;;17.68;51.18
60845;BME280;47984;51.250;6.712;2022-08-01T05:57:07;101462.13;;;17.68;51.01
60845;BME280;47984;51.250;6.712;2022-08-01T05:59:34;101452.44;;;17.68;50.76
60845;BME280;47984;51.250;6.712;2022-08-01T06:02:01;101455.81;;;17.72;51.40
60845;BME280;47984;51.250;6.712;2022-08-01T06:04:29;101456.69;;;17.73;50.79
60845;BME280;47984;51.250;6.712;2022-08-01T06:06:56;101459.31;;;17.73;51.20
60845;BME280;47984;51.250;6.712;2022-08-01T06:09:23;101454.91;;;17.73;50.79
60845;BME280;47984;51.250;6.712;2022-08-01T06:11:50;101459.22;;;17.74;50.88
60845;BME280;47984;51.250;6.712;2022-08-01T06:14:17;101451.28;;;17.76;50.68
60845;BME280;47984;51.250;6.712;2022-08-01T06:16:43;101452.19;;;17.75;50.78
60845;BME280;47984;51.250;6.712;2022-08-01T06:19:10;101455.75;;;17.74;50.85
60845;BME280;47984;51.250;6.712;2022-08-01T06:21:37;101453.03;;;17.75;50.90
60845;BME280;47984;51.250;6.712;2022-08-01T06:24:04;101450.34;;;17.77;51.42
60845;BME280;47984;51.250;6.712;2022-08-01T06:26:31;101441.53;;;17.78;51.32
60845;BME280;47984;51.250;6.712;2022-08-01T06:28:58;101449.41;;;17.78;51.10
60845;BME280;47984;51.250;6.712;2022-08-01T06:31:25;101448.50;;;17.79;51.19
60845;BME280;47984;51.250;6.712;2022-08-01T06:33:58;101440.69;;;17.77;51.30
60845;BME280;47984;51.250;6.712;2022-08-01T06:36:25;101453.69;;;17.80;50.98
60845;BME280;47984;51.250;6.712;2022-08-01T06:38:52;101458.09;;;17.80;50.83
60845;BME280;47984;51.250;6.712;2022-08-01T06:41:19;101454.53;;;17.81;51.74
60845;BME280;47984;51.250;6.712;2022-08-01T06:43:46;101455.31;;;17.83;51.17
60845;BME280;47984;51.250;6.712;2022-08-01T06:46:13;101448.34;;;17.82;51.36
60845;BME280;47984;51.250;6.712;2022-08-01T06:48:40;101453.53;;;17.83;51.09
60845;BME280;47984;51.250;6.712;2022-08-01T06:51:07;101445.56;;;17.85;51.69
60845;BME280;47984;51.250;6.712;2022-08-01T06:53:40;101447.28;;;17.86;51.04
60845;BME280;47984;51.250;6.712;2022-08-01T06:56:09;101451.44;;;17.90;51.20
60845;BME280;47984;51.250;6.712;2022-08-01T06:58:36;101448.81;;;17.90;51.78
60845;BME280;47984;51.250;6.712;2022-08-01T07:01:04;101453.91;;;17.93;51.27
60845;BME280;47984;51.250;6.712;2022-08-01T07:03:36;101445.97;;;17.95;51.59
60845;BME280;47984;51.250;6.712;2022-08-01T07:06:24;101452.91;;;17.96;51.44
60845;BME280;47984;51.250;6.712;2022-08-01T07:08:52;101441.41;;;17.98;51.27
60845;BME280;47984;51.250;6.712;2022-08-01T07:11:20;101443.09;;;17.99;51.85
60845;BME280;47984;51.250;6.712;2022-08-01T07:13:47;101438.63;;;18.01;51.50
60845;BME280;47984;51.250;6.712;2022-08-01T07:16:15;101436.00;;;18.01;51.46
60845;BME280;47984;51.250;6.712;2022-08-01T07:18:43;101449.59;;;18.09;51.79
60845;BME280;47984;51.250;6.712;2022-08-01T07:21:10;101446.75;;;18.14;51.50
60845;BME280;47984;51.250;6.712;2022-08-01T07:23:51;101443.72;;;18.22;51.57
60845;BME280;47984;51.250;6.712;2022-08-01T07:26:21;101439.16;;;18.25;51.37
60845;BME280;47984;51.250;6.712;2022-08-01T07:28:49;101448.66;;;18.28;51.46
60845;BME280;47984;51.250;6.712;2022-08-01T07:31:16;101444.03;;;18.33;51.44
60845;BME280;47984;51.250;6.712;2022-08-01T07:33:43;101445.56;;;18.37;51.78
60845;BME280;47984;51.250;6.712;2022-08-01T07:36:16;101447.00;;;18.44;51.94
60845;BME280;47984;51.250;6.712;2022-08-01T07:38:44;101440.72;;;18.47;51.56
60845;BME280;47984;51.250;6.712;2022-08-01T07:41:12;101438.78;;;18.50;51.53
60845;BME280;47984;51.250;6.712;2022-08-01T07:43:39;101444.66;;;18.55;51.84
60845;BME280;47984;51.250;6.712;2022-08-01T07:46:06;101447.22;;;18.57;51.74
60845;BME280;47984;51.250;6.712;2022-08-01T07:48:33;101455.81;;;18.60;51.49
60845;BME280;47984;51.250;6.712;2022-08-01T07:51:00;101453.78;;;18.66;51.79
60845;BME280;47984;51.250;6.712;2022-08-01T07:53:27;101460.59;;;18.70;51.47
60845;BME280;47984;51.250;6.712;2022-08-01T07:55:55;101460.44;;;18.73;52.02
60845;BME280;47984;51.250;6.712;2022-08-01T07:58:22;101458.56;;;18.75;51.63
60845;BME280;47984;51.250;6.712;2022-08-01T08:00:52;101460.28;;;18.76;51.39
60845;BME280;47984;51.250;6.712;2022-08-01T08:03:19;101461.78;;;18.80;51.34
60845;BME280;47984;51.250;6.712;2022-08-01T08:05:49;101454.69;;;18.82;51.74
60845;BME280;47984;51.250;6.712;2022-08-01T08:08:26;101466.56;;;18.89;51.36
60845;BME280;47984;51.250;6.712;2022-08-01T08:10:53;101460.22;;;18.93;51.81
60845;BME280;47984;51.250;6.712;2022-08-01T08:13:20;101457.59;;;18.93;51.77
60845;BME280;47984;51.250;6.712;2022-08-01T08:15:47;101466.09;;;18.98;51.93
60845;BME280;47984;51.250;6.712;2022-08-01T08:18:15;101468.56;;;19.01;51.59
60845;BME280;47984;51.250;6.712;2022-08-01T08:20:43;101463.13;;;19.04;51.31
60845;BME280;47984;51.250;6.712;2022-08-01T08:23:10;101466.59;;;19.05;51.55
60845;BME280;47984;51.250;6.712;2022-08-01T08:26:10;101469.94;;;19.08;51.75
60845;BME280;47984;51.250;6.712;2022-08-01T08:28:37;101473.97;;;19.16;51.54
60845;BME280;47984;51.250;6.712;2022-08-01T08:31:07;101471.25;;;19.17;51.95
60845;BME280;47984;51.250;6.712;2022-08-01T08:33:51;101465.13;;;19.17;51.76
60845;BME280;47984;51.250;6.712;2022-08-01T08:36:18;101465.47;;;19.26;51.88
60845;BME280;47984;51.250;6.712;2022-08-01T08:38:58;101471.53;;;19.28;51.75
60845;BME280;47984;51.250;6.712;2022-08-01T08:41:29;101475.63;;;19.34;51.46
60845;BME280;47984;51.250;6.712;2022-08-01T08:44:07;101477.13;;;19.38;52.17
60845;BME280;47984;51.250;6.712;2022-08-01T08:46:41;101477.13;;;19.38;52.04
60845;BME280;47984;51.250;6.712;2022-08-01T08:49:11;101477.75;;;19.43;51.35
60845;BME280;47984;51.250;6.712;2022-08-01T08:51:39;101473.22;;;19.45;51.42
60845;BME280;47984;51.250;6.712;2022-08-01T08:54:07;101482.69;;;19.49;51.52
60845;BME280;47984;51.250;6.712;2022-08-01T08:56:35;101480.78;;;19.51;51.90
60845;BME280;47984;51.250;6.712;2022-08-01T08:59:04;101482.41;;;19.54;51.41
60845;BME280;47984;51.250;6.712;2022-08-01T09:01:32;101480.63;;;19.54;51.32
60845;BME280;47984;51.250;6.712;2022-08-01T09:04:03;101483.84;;;19.60;52.09
60845;BME280;47984;51.250;6.712;2022-08-01T09:06:31;101487.28;;;19.62;52.07
60845;BME280;47984;51.250;6.712;2022-08-01T09:08:59;101487.16;;;19.63;51.31
60845;BME280;47984;51.250;6.712;2022-08-01T09:11:26;101486.16;;;19.66;51.76
60845;BME280;47984;51.250;6.712;2022-08-01T09:14:09;101490.47;;;19.67;52.06
60845;BME280;47984;51.250;6.712;2022-08-01T09:16:41;101493.13;;;19.67;51.34
60845;BME280;47984;51.250;6.712;2022-08-01T09:19:17;101481.81;;;19.65;51.80
60845;BME280;47984;51.250;6.712;2022-08-01T09:22:06;101489.38;;;19.71;51.95
60845;BME280;47984;51.250;6.712;2022-08-01T09:24:35;101491.84;;;19.74;52.16
60845;BME280;47984;51.250;6.712;2022-08-01T09:27:18;101497.13;;;19.74;51.85
60845;BME280;47984;51.250;6.712;2022-08-01T09:29:48;101493.72;;;19.72;51.70
60845;BME280;47984;51.250;6.712;2022-08-01T09:32:29;101502.06;;;19.80;51.75
60845;BME280;47984;51.250;6.712;2022-08-01T09:35:22;101501.91;;;19.83;51.35
60845;BME280;47984;51.250;6.712;2022-08-01T09:38:26;101508.78;;;19.86;52.27
60845;BME280;47984;51.250;6.712;2022-08-01T09:40:58;101503.78;;;19.81;52.29
60845;BME280;47984;51.250;6.712;2022-08-01T09:43:28;101503.63;;;19.84;52.26
60845;BME280;47984;51.250;6.712;2022-08-01T09:45:57;101507.09;;;19.85;51.55
60845;BME280;47984;51.250;6.712;2022-08-01T09:48:25;101508.63;;;19.89;51.65
60845;BME280;47984;51.250;6.712;2022-08-01T09:50:56;101504.09;;;19.91;52.07
60845;BME280;47984;51.250;6.712;2022-08-01T09:53:40;101505.72;;;19.93;52.21
60845;BME280;47984;51.250;6.712;2022-08-01T09:56:17;101502.91;;;19.96;51.90
60845;BME280;47984;51.250;6.712;2022-08-01T09:58:51;101500.78;;;20.03;52.20
60845;BME280;47984;51.250;6.712;2022-08-01T10:01:28;101509.00;;;20.13;51.31
60845;BME280;47984;51.250;6.712;2022-08-01T10:06:38;101494.13;;;20.26;51.50
60845;BME280;47984;51.250;6.712;2022-08-01T10:09:07;101498.88;;;20.35;51.80
60845;BME280;47984;51.250;6.712;2022-08-01T10:11:36;101492.50;;;20.39;50.98
60845;BME280;47984;51.250;6.712;2022-08-01T10:14:07;101495.63;;;20.46;51.35
60845;BME280;47984;51.250;6.712;2022-08-01T10:16:36;101485.75;;;20.50;51.29
60845;BME280;47984;51.250;6.712;2022-08-01T10:19:06;101487.06;;;20.57;51.30
60845;BME280;47984;51.250;6.712;2022-08-01T10:21:41;101486.69;;;20.63;51.81
60845;BME280;47984;51.250;6.712;2022-08-01T10:24:27;101486.34;;;20.69;51.22
60845;BME280;47984;51.250;6.712;2022-08-01T10:26:58;101491.44;;;20.72;50.92
60845;BME280;47984;51.250;6.712;2022-08-01T10:29:40;101495.59;;;20.76;51.72
60845;BME280;47984;51.250;6.712;2022-08-01T10:32:27;101488.16;;;20.83;50.99
60845;BME280;47984;51.250;6.712;2022-08-01T10:34:55;101492.28;;;20.87;51.57
60845;BME280;47984;51.250;6.712;2022-08-01T10:37:24;101486.81;;;20.90;51.51
60845;BME280;47984;51.250;6.712;2022-08-01T10:39:53;101484.66;;;20.97;51.55
60845;BME280;47984;51.250;6.712;2022-08-01T10:42:42;101482.84;;;20.97;51.26
60845;BME280;47984;51.250;6.712;2022-08-01T10:45:12;101492.13;;;21.04;51.49
60845;BME280;47984;51.250;6.712;2022-08-01T10:47:47;101486.53;;;21.09;51.60
60845;BME280;47984;51.250;6.712;2022-08-01T10:50:29;101489.78;;;21.14;51.44
60845;BME280;47984;51.250;6.712;2022-08-01T10:53:21;101484.19;;;21.19;50.63
60845;BME280;47984;51.250;6.712;2022-08-01T10:58:36;101484.84;;;21.22;51.03
60845;BME280;47984;51.250;6.712;2022-08-01T11:04:08;101484.75;;;21.24;50.95
60845;BME280;47984;51.250;6.712;2022-08-01T11:06:51;101483.81;;;21.25;50.67
60845;BME280;47984;51.250;6.712;2022-08-01T11:10:03;101486.38;;;21.26;50.73
60845;BME280;47984;51.250;6.712;2022-08-01T11:12:17;101485.41;;;21.27;50.93
60845;BME280;47984;51.250;6.712;2022-08-01T11:28:35;101457.03;;;21.44;50.31
60845;BME280;47984;51.250;6.712;2022-08-01T11:41:40;101462.88;;;21.76;50.73
60845;BME280;47984;51.250;6.712;2022-08-01T11:44:11;101463.25;;;21.84;50.78
60845;BME280;47984;51.250;6.712;2022-08-01T11:57:23;101471.47;;;22.07;49.77
60845;BME280;47984;51.250;6.712;2022-08-01T12:00:04;101467.22;;;22.04;50.67
60845;BME280;47984;51.250;6.712;2022-08-01T12:02:35;101470.72;;;22.04;49.88
60845;BME280;47984;51.250;6.712;2022-08-01T12:05:13;101477.72;;;22.05;49.83
60845;BME280;47984;51.250;6.712;2022-08-01T12:07:44;101464.47;;;22.05;49.98
60845;BME280;47984;51.250;6.712;2022-08-01T12:10:15;101473.81;;;22.11;50.49
60845;BME280;47984;51.250;6.712;2022-08-01T12:12:59;101466.50;;;22.15;50.48
60845;BME280;47984;51.250;6.712;2022-08-01T12:15:37;101464.72;;;22.15;49.89
60845;BME280;47984;51.250;6.712;2022-08-01T12:18:05;101473.19;;;22.20;49.84
60845;BME280;47984;51.250;6.712;2022-08-01T12:20:35;101472.78;;;22.26;50.15
60845;BME280;47984;51.250;6.712;2022-08-01T12:23:08;101474.16;;;22.32;49.38
60845;BME280;47984;51.250;6.712;2022-08-01T12:25:37;101467.06;;;22.33;49.81
60845;BME280;47984;51.250;6.712;2022-08-01T12:28:07;101467.81;;;22.35;49.68
60845;BME280;47984;51.250;6.712;2022-08-01T12:30:36;101467.69;;;22.36;49.66
60845;BME280;47984;51.250;6.712;2022-08-01T12:33:07;101459.66;;;22.38;49.79
60845;BME280;47984;51.250;6.712;2022-08-01T12:35:37;101463.03;;;22.40;49.45
60845;BME280;47984;51.250;6.712;2022-08-01T12:38:06;101464.78;;;22.41;49.23
60845;BME280;47984;51.250;6.712;2022-08-01T12:40:41;101469.97;;;22.42;49.53
60845;BME280;47984;51.250;6.712;2022-08-01T12:43:21;101465.63;;;22.41;49.92
60845;BME280;47984;51.250;6.712;2022-08-01T12:45:56;101466.38;;;22.43;49.64
60845;BME280;47984;51.250;6.712;2022-08-01T12:48:25;101472.53;;;22.44;49.35
60845;BME280;47984;51.250;6.712;2022-08-01T12:50:53;101470.59;;;22.46;49.87
60845;BME280;47984;51.250;6.712;2022-08-01T12:53:34;101474.13;;;22.46;49.59
60845;BME280;47984;51.250;6.712;2022-08-01T12:56:07;101478.53;;;22.46;50.04
60845;BME280;47984;51.250;6.712;2022-08-01T12:58:38;101471.75;;;22.42;49.45
60845;BME280;47984;51.250;6.712;2022-08-01T13:01:10;101478.03;;;22.41;49.23
60845;BME280;47984;51.250;6.712;2022-08-01T13:03:39;101471.94;;;22.39;49.83
60845;BME280;47984;51.250;6.712;2022-08-01T13:06:14;101472.16;;;22.36;49.40
60845;BME280;47984;51.250;6.712;2022-08-01T13:08:44;101470.09;;;22.41;49.50
60845;BME280;47984;51.250;6.712;2022-08-01T13:11:13;101473.44;;;22.43;49.71
60845;BME280;47984;51.250;6.712;2022-08-01T13:13:51;101474.13;;;22.46;49.74
60845;BME280;47984;51.250;6.712;2022-08-01T13:16:21;101470.59;;;22.46;49.11
60845;BME280;47984;51.250;6.712;2022-08-01T13:19:04;101467.09;;;22.45;49.36
60845;BME280;47984;51.250;6.712;2022-08-01T13:21:32;101461.81;;;22.45;48.82
60845;BME280;47984;51.250;6.712;2022-08-01T13:26:56;101476.66;;;22.48;48.68
60845;BME280;47984;51.250;6.712;2022-08-01T13:29:33;101473.38;;;22.44;48.71
60845;BME280;47984;51.250;6.712;2022-08-01T13:32:15;101476.41;;;22.38;49.18
60845;BME280;47984;51.250;6.712;2022-08-01T13:35:07;101473.84;;;22.37;48.67
60845;BME280;47984;51.250;6.712;2022-08-01T13:37:36;101471.19;;;22.37;49.13
60845;BME280;47984;51.250;6.712;2022-08-01T13:40:06;101472.16;;;22.36;49.38
60845;BME280;47984;51.250;6.712;2022-08-01T13:42:34;101478.28;;;22.36;48.91
60845;BME280;47984;51.250;6.712;2022-08-01T13:45:04;101473.84;;;22.37;48.75
60845;BME280;47984;51.250;6.712;2022-08-01T13:47:43;101468.66;;;22.35;48.48
60845;BME280;47984;51.250;6.712;2022-08-01T13:50:30;101478.19;;;22.38;49.18
60845;BME280;47984;51.250;6.712;2022-08-01T13:52:58;101471.94;;;22.39;48.71
60845;BME280;47984;51.250;6.712;2022-08-01T13:55:25;101480.09;;;22.36;48.56
60845;BME280;47984;51.250;6.712;2022-08-01T13:57:59;101489.72;;;22.37;49.27